Weather at Fox Harbour Airport

Public forecast

Using degrees Celsius for public forecast. Weather courtesy of forecast.io.

Closest aviation weather report (METAR) to Fox Harbour Airport

Closest report is Charlottetown Airport, 28.9 nm (53.6 km) NNE.

2024/04/22 12:06 (retrieved 38 minutes ago)

CYYG 221206Z 23006KT 15SM SCT012 04/02 A2969 RMK SC3 SLP056

Closest aviation forecast (TAF) to Fox Harbour Airport

Closest forecast is Charlottetown Airport, 28.9 nm (53.6 km) NNE.

2024/04/22 12:51 (retrieved 0 seconds ago)

TAF CYYG 221148Z 2212/2224 28010G20KT P6SM SCT012 BKN060 TEMPO 2212/2213 P6SM -SHRA OVC012 FM221300 27015G25KT P6SM SCT030 TEMPO 2213/2216 BKN030 BECMG 2219/2221 30010G20KT RMK NXT FCST BY 221800Z